ADDS METAR Data INFO
IDs: Format: Raw Decoded Include TAF

Data at: 1224 UTC 22 Feb 2018

KAFN 221152Z AUTO 00000KT 10SM OVC080 02/M07 A3058 RMK AO2 UPB24E36 SLP366 P0000 60000 T00221072 10061 20022 51021
KAFN 221052Z AUTO 00000KT 10SM OVC080 02/M07 A3057 RMK AO2 SLP361 T00221072
KAFN 220952Z AUTO 36004KT 10SM OVC070 03/M06 A3054 RMK AO2 SLP352 T00281061
KAFN 220852Z AUTO VRB04KT 10SM BKN080 OVC100 03/M05 A3052 RMK AO2 SLP342 T00331050 51018
KAFN 220752Z AUTO 34007KT 310V020 10SM BKN075 BKN090 04/M04 A3051 RMK AO2 SLP338 T00391044
KAFN 220652Z AUTO 33004KT 10SM OVC070 05/M05 A3049 RMK AO2 SLP332 T00501050
KAFN 220552Z AUTO VRB03KT 10SM CLR 05/M02 A3046 RMK AO2 SLP324 T00501017 10161 20050 53036
KAFN 220452Z AUTO VRB04KT 10SM SCT075 BKN085 08/01 A3043 RMK AO2 SLP312 T00780011 402170022
KAFN 220352Z AUTO 33004KT 10SM FEW030 OVC070 09/05 A3038 RMK AO2 SLP296 T00940050
KAFN 220047Z AUTO 31004KT 10SM FEW026 OVC035 14/09 A3029 RMK AO2
KAFN 212352Z AUTO VRB06KT 10SM BKN026 OVC049 16/12 A3026 RMK AO2 SLP255 T01610117 10217 20156 53052
KAFN 212252Z AUTO 30009G20KT 10SM BKN055 BKN065 OVC085 19/13 A3020 RMK AO2 PRESRR SLP233 T01890128
KAFN 212152Z AUTO 00000KT 10SM BKN050 OVC060 18/13 A3012 RMK AO2 SLP208 T01830133
KAFN 212052Z AUTO 20009G17KT 10SM BKN060 21/13 A3010 RMK AO2 SLP200 T02060133 55002
KAFN 211952Z AUTO 21010G16KT 10SM CLR 21/13 A3009 RMK AO2 SLP197 T02110133
KAFN 211852Z AUTO 20009KT 10SM CLR 20/14 A3009 RMK AO2 SLP197 T02000139
KAFN 211752Z AUTO 20013G19KT 10SM CLR 18/14 A3011 RMK AO2 SLP202 T01830139 10183 20050 58030
KAFN 211652Z AUTO 21007KT 10SM SCT009 16/14 A3015 RMK AO2 SLP219 T01610139
KAFN 211624Z AUTO 19010G16KT 9SM OVC006 15/14 A3017 RMK AO2 CIG 005V010 T01500139
KAFN 211609Z AUTO 22006KT 7SM OVC005 14/14 A3018 RMK AO2 T01390139
KAFN 211552Z AUTO 22004KT 6SM BR OVC004 14/14 A3019 RMK AO2 SLP231 T01390139
KAFN 211452Z AUTO VRB05KT 3SM BR OVC002 13/13 A3020 RMK AO2 SLP235 T01280128 58003
KAFN 211444Z AUTO 23004KT 3SM BR OVC002 13/13 A3020 RMK AO2 T01280128
KAFN 211420Z AUTO 21008KT 2SM BR OVC002 13/13 A3020 RMK AO2 T01280128
KAFN 211410Z AUTO VRB05KT 1 3/4SM BR OVC002 12/12 A3021 RMK AO2 T01220122
KAFN 211401Z AUTO 21005KT 1 1/4SM BR OVC002 12/12 A3020 RMK AO2 T01220122
KAFN 211352Z AUTO VRB05KT 3/4SM BR OVC002 12/12 A3020 RMK AO2 SLP238 T01220122
KAFN 211252Z AUTO 00000KT M1/4SM FG VV002 11/ A3021 RMK AO2 SLP240 T0106 $
KAFN 210752Z AUTO 18004KT 1SM BR VV003 02/ A3024 RMK AO2 SLP252 T0022 $
KAFN 210714Z AUTO 18003KT 1/2SM FG VV001 03/ A3025 RMK AO2 T0028 $
KAFN 210702Z AUTO 18003KT 1SM BR VV001 03/ A3026 RMK AO2 T0028 $
KAFN 210652Z AUTO 18003KT 3/4SM BR VV001 03/ A3026 RMK AO2 SLP257 T0028 $
KAFN 210552Z AUTO 18003KT 1/4SM FG VV002 04/ A3026 RMK AO2 SLP257 T0044 10089 20033 50000 $